sensor_id;sensor_type;location;lat;lon;timestamp;temperature;humidity
1568;DHT22;777;47.156;8.326;2023-02-03T00:02:00;4.10;99.90
1568;DHT22;777;47.156;8.326;2023-02-03T00:04:27;4.10;99.90
1568;DHT22;777;47.156;8.326;2023-02-03T00:06:54;4.00;99.90
1568;DHT22;777;47.156;8.326;2023-02-03T00:09:21;4.00;99.90
1568;DHT22;777;47.156;8.326;2023-02-03T00:11:48;4.00;99.90
1568;DHT22;777;47.156;8.326;2023-02-03T00:14:15;4.00;99.90
1568;DHT22;777;47.156;8.326;2023-02-03T00:16:43;4.00;99.90
1568;DHT22;777;47.156;8.326;2023-02-03T00:19:10;4.10;99.90
1568;DHT22;777;47.156;8.326;2023-02-03T00:21:37;4.10;99.90
1568;DHT22;777;47.156;8.326;2023-02-03T00:24:05;4.10;99.90
1568;DHT22;777;47.156;8.326;2023-02-03T00:26:32;4.10;99.90
1568;DHT22;777;47.156;8.326;2023-02-03T00:28:59;4.10;99.90
1568;DHT22;777;47.156;8.326;2023-02-03T00:31:26;4.10;99.90
1568;DHT22;777;47.156;8.326;2023-02-03T00:33:55;4.10;99.90
1568;DHT22;777;47.156;8.326;2023-02-03T00:36:23;4.10;99.90
1568;DHT22;777;47.156;8.326;2023-02-03T00:38:50;4.20;99.90
1568;DHT22;777;47.156;8.326;2023-02-03T00:41:19;4.20;99.90
1568;DHT22;777;47.156;8.326;2023-02-03T00:43:46;4.20;99.90
1568;DHT22;777;47.156;8.326;2023-02-03T00:46:13;4.20;99.90
1568;DHT22;777;47.156;8.326;2023-02-03T00:48:40;4.30;99.90
1568;DHT22;777;47.156;8.326;2023-02-03T00:51:09;4.30;99.90
1568;DHT22;777;47.156;8.326;2023-02-03T00:53:36;4.30;99.90
1568;DHT22;777;47.156;8.326;2023-02-03T00:56:03;4.30;99.90
1568;DHT22;777;47.156;8.326;2023-02-03T00:58:37;4.30;99.90
1568;DHT22;777;47.156;8.326;2023-02-03T01:01:04;4.20;99.90
1568;DHT22;777;47.156;8.326;2023-02-03T01:03:31;4.20;99.90
1568;DHT22;777;47.156;8.326;2023-02-03T01:06:09;4.30;99.90
1568;DHT22;777;47.156;8.326;2023-02-03T01:08:36;4.30;99.90
1568;DHT22;777;47.156;8.326;2023-02-03T01:11:06;4.40;99.90
1568;DHT22;777;47.156;8.326;2023-02-03T01:13:33;4.40;99.90
1568;DHT22;777;47.156;8.326;2023-02-03T01:16:00;4.40;99.90
1568;DHT22;777;47.156;8.326;2023-02-03T01:18:27;4.40;99.90
1568;DHT22;777;47.156;8.326;2023-02-03T01:20:54;4.30;99.90
1568;DHT22;777;47.156;8.326;2023-02-03T01:23:23;4.30;99.90
1568;DHT22;777;47.156;8.326;2023-02-03T01:25:50;4.30;99.90
1568;DHT22;777;47.156;8.326;2023-02-03T01:28:17;4.30;99.90
1568;DHT22;777;47.156;8.326;2023-02-03T01:30:44;4.30;99.90
1568;DHT22;777;47.156;8.326;2023-02-03T01:33:11;4.30;99.90
1568;DHT22;777;47.156;8.326;2023-02-03T01:35:38;4.30;99.90
1568;DHT22;777;47.156;8.326;2023-02-03T01:38:05;4.20;99.90
1568;DHT22;777;47.156;8.326;2023-02-03T01:40:33;4.20;99.90
1568;DHT22;777;47.156;8.326;2023-02-03T01:43:08;4.20;99.90
1568;DHT22;777;47.156;8.326;2023-02-03T01:45:35;4.20;99.90
1568;DHT22;777;47.156;8.326;2023-02-03T01:48:03;4.20;99.90
1568;DHT22;777;47.156;8.326;2023-02-03T01:50:32;4.20;99.90
1568;DHT22;777;47.156;8.326;2023-02-03T01:53:02;4.20;99.90
1568;DHT22;777;47.156;8.326;2023-02-03T01:55:35;4.20;99.90
1568;DHT22;777;47.156;8.326;2023-02-03T01:58:06;4.20;99.90
1568;DHT22;777;47.156;8.326;2023-02-03T02:00:36;4.20;99.90
1568;DHT22;777;47.156;8.326;2023-02-03T02:03:04;4.20;99.90
1568;DHT22;777;47.156;8.326;2023-02-03T02:05:35;4.20;99.90
1568;DHT22;777;47.156;8.326;2023-02-03T02:08:05;4.20;99.90
1568;DHT22;777;47.156;8.326;2023-02-03T02:10:34;4.20;99.90
1568;DHT22;777;47.156;8.326;2023-02-03T02:13:02;4.20;99.90
1568;DHT22;777;47.156;8.326;2023-02-03T02:15:39;4.20;99.90
1568;DHT22;777;47.156;8.326;2023-02-03T02:18:19;4.20;99.90
1568;DHT22;777;47.156;8.326;2023-02-03T02:21:36;4.20;99.90
1568;DHT22;777;47.156;8.326;2023-02-03T02:24:38;4.20;99.90
1568;DHT22;777;47.156;8.326;2023-02-03T02:27:21;4.20;99.90
1568;DHT22;777;47.156;8.326;2023-02-03T02:30:11;4.10;99.90
1568;DHT22;777;47.156;8.326;2023-02-03T02:32:57;4.10;99.90
1568;DHT22;777;47.156;8.326;2023-02-03T02:35:35;4.10;99.90
1568;DHT22;777;47.156;8.326;2023-02-03T02:38:14;4.10;99.90
1568;DHT22;777;47.156;8.326;2023-02-03T02:40:50;4.10;99.90
1568;DHT22;777;47.156;8.326;2023-02-03T02:43:22;4.20;99.90
1568;DHT22;777;47.156;8.326;2023-02-03T02:45:53;4.20;99.90
1568;DHT22;777;47.156;8.326;2023-02-03T02:48:28;4.10;99.90
1568;DHT22;777;47.156;8.326;2023-02-03T02:50:59;4.10;99.90
1568;DHT22;777;47.156;8.326;2023-02-03T02:53:32;4.00;99.90
1568;DHT22;777;47.156;8.326;2023-02-03T02:56:04;4.00;99.90
1568;DHT22;777;47.156;8.326;2023-02-03T02:58:33;3.90;99.90
1568;DHT22;777;47.156;8.326;2023-02-03T03:01:01;3.80;99.90
1568;DHT22;777;47.156;8.326;2023-02-03T03:03:30;3.80;99.90
1568;DHT22;777;47.156;8.326;2023-02-03T03:06:00;3.60;99.90
1568;DHT22;777;47.156;8.326;2023-02-03T03:08:35;3.60;99.90
1568;DHT22;777;47.156;8.326;2023-02-03T03:11:05;3.50;99.90
1568;DHT22;777;47.156;8.326;2023-02-03T03:13:38;3.50;99.90
1568;DHT22;777;47.156;8.326;2023-02-03T03:16:08;3.40;99.90
1568;DHT22;777;47.156;8.326;2023-02-03T03:18:40;3.50;99.90
1568;DHT22;777;47.156;8.326;2023-02-03T03:21:10;3.40;99.90
1568;DHT22;777;47.156;8.326;2023-02-03T03:23:43;3.40;99.90
1568;DHT22;777;47.156;8.326;2023-02-03T03:26:15;3.40;99.90
1568;DHT22;777;47.156;8.326;2023-02-03T03:28:47;3.40;99.90
1568;DHT22;777;47.156;8.326;2023-02-03T03:31:15;3.30;99.90
1568;DHT22;777;47.156;8.326;2023-02-03T03:33:45;3.30;99.90
1568;DHT22;777;47.156;8.326;2023-02-03T03:36:21;3.50;99.90
1568;DHT22;777;47.156;8.326;2023-02-03T03:38:54;3.70;99.90
1568;DHT22;777;47.156;8.326;2023-02-03T03:41:28;3.90;99.90
1568;DHT22;777;47.156;8.326;2023-02-03T03:43:59;4.00;99.90
1568;DHT22;777;47.156;8.326;2023-02-03T03:46:30;4.00;99.90
1568;DHT22;777;47.156;8.326;2023-02-03T03:49:02;4.10;99.90
1568;DHT22;777;47.156;8.326;2023-02-03T03:51:31;4.10;99.90
1568;DHT22;777;47.156;8.326;2023-02-03T03:54:02;4.20;99.90
1568;DHT22;777;47.156;8.326;2023-02-03T03:56:35;4.30;99.90
1568;DHT22;777;47.156;8.326;2023-02-03T03:59:04;4.40;99.90
1568;DHT22;777;47.156;8.326;2023-02-03T04:01:33;4.40;99.90
1568;DHT22;777;47.156;8.326;2023-02-03T04:04:06;4.30;99.90
1568;DHT22;777;47.156;8.326;2023-02-03T04:06:37;4.30;99.90
1568;DHT22;777;47.156;8.326;2023-02-03T04:09:05;4.10;99.90
1568;DHT22;777;47.156;8.326;2023-02-03T04:11:32;4.10;99.90
1568;DHT22;777;47.156;8.326;2023-02-03T04:14:17;4.00;99.90
1568;DHT22;777;47.156;8.326;2023-02-03T04:16:44;3.90;99.90
1568;DHT22;777;47.156;8.326;2023-02-03T04:19:12;3.90;99.90
1568;DHT22;777;47.156;8.326;2023-02-03T04:21:39;3.90;99.90
1568;DHT22;777;47.156;8.326;2023-02-03T04:24:06;3.80;99.90
1568;DHT22;777;47.156;8.326;2023-02-03T04:26:33;3.80;99.90
1568;DHT22;777;47.156;8.326;2023-02-03T04:29:00;3.80;99.90
1568;DHT22;777;47.156;8.326;2023-02-03T04:31:28;3.80;99.90
1568;DHT22;777;47.156;8.326;2023-02-03T04:33:55;3.80;99.90
1568;DHT22;777;47.156;8.326;2023-02-03T04:36:23;3.80;99.90
1568;DHT22;777;47.156;8.326;2023-02-03T04:38:50;3.80;99.90
1568;DHT22;777;47.156;8.326;2023-02-03T04:41:17;3.80;99.90
1568;DHT22;777;47.156;8.326;2023-02-03T04:43:44;3.80;99.90
1568;DHT22;777;47.156;8.326;2023-02-03T04:46:11;3.80;99.90
1568;DHT22;777;47.156;8.326;2023-02-03T04:48:38;3.80;99.90
1568;DHT22;777;47.156;8.326;2023-02-03T04:51:07;3.70;99.90
1568;DHT22;777;47.156;8.326;2023-02-03T04:53:36;3.50;99.90
1568;DHT22;777;47.156;8.326;2023-02-03T04:56:03;3.40;99.90
1568;DHT22;777;47.156;8.326;2023-02-03T04:58:30;3.40;99.90
1568;DHT22;777;47.156;8.326;2023-02-03T05:00:57;3.40;99.90
1568;DHT22;777;47.156;8.326;2023-02-03T05:03:24;3.30;99.90
1568;DHT22;777;47.156;8.326;2023-02-03T05:05:51;3.30;99.90
1568;DHT22;777;47.156;8.326;2023-02-03T05:08:18;3.30;99.90
1568;DHT22;777;47.156;8.326;2023-02-03T05:10:47;3.20;99.90
1568;DHT22;777;47.156;8.326;2023-02-03T05:13:14;3.10;99.90
1568;DHT22;777;47.156;8.326;2023-02-03T05:15:40;3.10;99.90
1568;DHT22;777;47.156;8.326;2023-02-03T05:18:07;3.10;99.90
1568;DHT22;777;47.156;8.326;2023-02-03T05:20:34;3.10;99.90
1568;DHT22;777;47.156;8.326;2023-02-03T05:23:01;3.10;99.90
1568;DHT22;777;47.156;8.326;2023-02-03T05:25:29;3.00;99.90
1568;DHT22;777;47.156;8.326;2023-02-03T05:27:57;2.90;99.90
1568;DHT22;777;47.156;8.326;2023-02-03T05:30:24;2.90;99.90
1568;DHT22;777;47.156;8.326;2023-02-03T05:32:51;2.80;99.90
1568;DHT22;777;47.156;8.326;2023-02-03T05:35:18;2.80;99.90
1568;DHT22;777;47.156;8.326;2023-02-03T05:37:45;2.90;99.90
1568;DHT22;777;47.156;8.326;2023-02-03T05:40:13;2.90;99.90
1568;DHT22;777;47.156;8.326;2023-02-03T05:42:59;2.90;99.90
1568;DHT22;777;47.156;8.326;2023-02-03T05:45:26;2.90;99.90
1568;DHT22;777;47.156;8.326;2023-02-03T05:47:53;2.80;99.90
1568;DHT22;777;47.156;8.326;2023-02-03T05:50:20;2.60;99.90
1568;DHT22;777;47.156;8.326;2023-02-03T05:52:47;2.50;99.90
1568;DHT22;777;47.156;8.326;2023-02-03T05:55:14;2.40;99.90
1568;DHT22;777;47.156;8.326;2023-02-03T05:57:41;2.30;99.90
1568;DHT22;777;47.156;8.326;2023-02-03T06:00:12;2.20;99.90
1568;DHT22;777;47.156;8.326;2023-02-03T06:02:39;2.20;99.90
1568;DHT22;777;47.156;8.326;2023-02-03T06:05:07;2.10;99.90
1568;DHT22;777;47.156;8.326;2023-02-03T06:07:34;2.00;99.90
1568;DHT22;777;47.156;8.326;2023-02-03T06:10:01;2.00;99.90
1568;DHT22;777;47.156;8.326;2023-02-03T06:12:28;2.00;99.90
1568;DHT22;777;47.156;8.326;2023-02-03T06:14:55;1.90;99.90
1568;DHT22;777;47.156;8.326;2023-02-03T06:17:24;1.80;99.90
1568;DHT22;777;47.156;8.326;2023-02-03T06:19:51;1.50;99.90
1568;DHT22;777;47.156;8.326;2023-02-03T06:22:18;1.50;99.90
1568;DHT22;777;47.156;8.326;2023-02-03T06:24:45;1.50;99.90
1568;DHT22;777;47.156;8.326;2023-02-03T06:27:12;1.40;99.90
1568;DHT22;777;47.156;8.326;2023-02-03T06:29:40;1.30;99.90
1568;DHT22;777;47.156;8.326;2023-02-03T06:32:07;1.30;99.90
1568;DHT22;777;47.156;8.326;2023-02-03T06:34:36;1.10;99.90
1568;DHT22;777;47.156;8.326;2023-02-03T06:37:03;1.10;99.90
1568;DHT22;777;47.156;8.326;2023-02-03T06:39:30;1.20;99.90
1568;DHT22;777;47.156;8.326;2023-02-03T06:41:57;1.20;99.90
1568;DHT22;777;47.156;8.326;2023-02-03T06:44:24;1.20;99.90
1568;DHT22;777;47.156;8.326;2023-02-03T06:46:51;1.30;99.90
1568;DHT22;777;47.156;8.326;2023-02-03T06:49:18;1.60;99.90
1568;DHT22;777;47.156;8.326;2023-02-03T06:51:47;2.00;99.90
1568;DHT22;777;47.156;8.326;2023-02-03T06:54:14;2.20;99.90
1568;DHT22;777;47.156;8.326;2023-02-03T06:56:41;2.30;99.90
1568;DHT22;777;47.156;8.326;2023-02-03T06:59:08;2.30;99.90
1568;DHT22;777;47.156;8.326;2023-02-03T07:01:36;2.40;99.90
1568;DHT22;777;47.156;8.326;2023-02-03T07:04:03;2.40;99.90
1568;DHT22;777;47.156;8.326;2023-02-03T07:06:31;2.30;99.90
1568;DHT22;777;47.156;8.326;2023-02-03T07:09:01;2.30;99.90
1568;DHT22;777;47.156;8.326;2023-02-03T07:11:29;2.30;99.90
1568;DHT22;777;47.156;8.326;2023-02-03T07:13:56;2.30;99.90
1568;DHT22;777;47.156;8.326;2023-02-03T07:16:24;2.50;99.90
1568;DHT22;777;47.156;8.326;2023-02-03T07:18:52;3.00;99.90
1568;DHT22;777;47.156;8.326;2023-02-03T07:21:19;3.50;99.90
1568;DHT22;777;47.156;8.326;2023-02-03T07:23:46;4.20;99.90
1568;DHT22;777;47.156;8.326;2023-02-03T07:26:16;4.40;99.90
1568;DHT22;777;47.156;8.326;2023-02-03T07:28:43;4.70;99.90
1568;DHT22;777;47.156;8.326;2023-02-03T07:31:10;5.20;99.90
1568;DHT22;777;47.156;8.326;2023-02-03T07:33:37;5.40;99.90
1568;DHT22;777;47.156;8.326;2023-02-03T07:36:06;5.90;99.90
1568;DHT22;777;47.156;8.326;2023-02-03T07:38:33;6.20;99.90
1568;DHT22;777;47.156;8.326;2023-02-03T07:41:02;6.40;99.90
1568;DHT22;777;47.156;8.326;2023-02-03T07:43:31;6.60;99.90
1568;DHT22;777;47.156;8.326;2023-02-03T07:45:58;6.80;99.90
1568;DHT22;777;47.156;8.326;2023-02-03T07:48:26;6.80;99.90
1568;DHT22;777;47.156;8.326;2023-02-03T07:50:53;6.60;99.90
1568;DHT22;777;47.156;8.326;2023-02-03T07:53:20;6.50;99.90
1568;DHT22;777;47.156;8.326;2023-02-03T07:55:47;6.30;99.90
1568;DHT22;777;47.156;8.326;2023-02-03T07:58:14;6.20;99.90
1568;DHT22;777;47.156;8.326;2023-02-03T08:00:43;6.00;99.90
1568;DHT22;777;47.156;8.326;2023-02-03T08:03:10;5.60;99.90
1568;DHT22;777;47.156;8.326;2023-02-03T08:05:37;5.60;99.90
1568;DHT22;777;47.156;8.326;2023-02-03T08:08:04;5.70;99.90
1568;DHT22;777;47.156;8.326;2023-02-03T08:10:31;5.50;99.90
1568;DHT22;777;47.156;8.326;2023-02-03T08:12:58;5.40;99.90
1568;DHT22;777;47.156;8.326;2023-02-03T08:15:25;5.30;99.90
1568;DHT22;777;47.156;8.326;2023-02-03T08:17:54;5.40;99.90
1568;DHT22;777;47.156;8.326;2023-02-03T08:20:21;6.40;99.90
1568;DHT22;777;47.156;8.326;2023-02-03T08:22:48;7.30;99.90
1568;DHT22;777;47.156;8.326;2023-02-03T08:25:15;7.90;99.90
1568;DHT22;777;47.156;8.326;2023-02-03T08:27:42;8.40;99.90
1568;DHT22;777;47.156;8.326;2023-02-03T08:30:12;8.70;99.90
1568;DHT22;777;47.156;8.326;2023-02-03T08:32:39;9.00;99.90
1568;DHT22;777;47.156;8.326;2023-02-03T08:35:08;9.10;99.90
1568;DHT22;777;47.156;8.326;2023-02-03T08:37:35;8.90;99.90
1568;DHT22;777;47.156;8.326;2023-02-03T08:40:03;8.70;99.90
1568;DHT22;777;47.156;8.326;2023-02-03T08:42:30;8.60;99.90
1568;DHT22;777;47.156;8.326;2023-02-03T08:44:57;8.30;99.90
1568;DHT22;777;47.156;8.326;2023-02-03T08:47:24;7.80;99.90
1568;DHT22;777;47.156;8.326;2023-02-03T08:49:52;7.40;99.90
1568;DHT22;777;47.156;8.326;2023-02-03T08:52:20;7.50;99.90
1568;DHT22;777;47.156;8.326;2023-02-03T08:54:47;7.70;99.90
1568;DHT22;777;47.156;8.326;2023-02-03T08:57:15;7.90;99.90
1568;DHT22;777;47.156;8.326;2023-02-03T08:59:42;8.00;99.90
1568;DHT22;777;47.156;8.326;2023-02-03T09:02:14;8.30;99.90
1568;DHT22;777;47.156;8.326;2023-02-03T09:04:42;8.50;99.90
1568;DHT22;777;47.156;8.326;2023-02-03T09:07:09;8.70;99.90
1568;DHT22;777;47.156;8.326;2023-02-03T09:09:39;8.50;99.90
1568;DHT22;777;47.156;8.326;2023-02-03T09:12:06;8.00;99.90
1568;DHT22;777;47.156;8.326;2023-02-03T09:14:35;8.00;99.90
1568;DHT22;777;47.156;8.326;2023-02-03T09:17:03;8.40;99.90
1568;DHT22;777;47.156;8.326;2023-02-03T09:19:31;8.90;99.90
1568;DHT22;777;47.156;8.326;2023-02-03T09:21:58;9.10;99.90
1568;DHT22;777;47.156;8.326;2023-02-03T09:24:25;9.40;99.90
1568;DHT22;777;47.156;8.326;2023-02-03T09:26:53;9.90;99.90
1568;DHT22;777;47.156;8.326;2023-02-03T09:29:20;10.40;99.90
1568;DHT22;777;47.156;8.326;2023-02-03T09:31:48;10.70;99.90
1568;DHT22;777;47.156;8.326;2023-02-03T09:34:17;11.50;99.90
1568;DHT22;777;47.156;8.326;2023-02-03T09:36:45;11.90;99.90
1568;DHT22;777;47.156;8.326;2023-02-03T09:39:14;11.90;99.90
1568;DHT22;777;47.156;8.326;2023-02-03T09:41:59;11.50;99.90
1568;DHT22;777;47.156;8.326;2023-02-03T09:44:31;10.80;99.90
1568;DHT22;777;47.156;8.326;2023-02-03T09:47:03;10.30;99.90
1568;DHT22;777;47.156;8.326;2023-02-03T09:49:38;9.50;99.90
1568;DHT22;777;47.156;8.326;2023-02-03T09:52:10;10.50;99.90
1568;DHT22;777;47.156;8.326;2023-02-03T09:54:42;11.70;99.90
1568;DHT22;777;47.156;8.326;2023-02-03T09:57:18;12.00;99.90
1568;DHT22;777;47.156;8.326;2023-02-03T09:59:46;12.10;99.90
1568;DHT22;777;47.156;8.326;2023-02-03T10:02:24;12.40;99.90
1568;DHT22;777;47.156;8.326;2023-02-03T10:04:58;12.90;99.90
1568;DHT22;777;47.156;8.326;2023-02-03T10:07:32;13.10;99.90
1568;DHT22;777;47.156;8.326;2023-02-03T10:10:11;13.40;99.90
1568;DHT22;777;47.156;8.326;2023-02-03T10:13:02;13.70;99.90
1568;DHT22;777;47.156;8.326;2023-02-03T10:18:45;13.00;99.90
1568;DHT22;777;47.156;8.326;2023-02-03T10:21:18;12.10;99.90
1568;DHT22;777;47.156;8.326;2023-02-03T10:23:47;11.70;99.90
1568;DHT22;777;47.156;8.326;2023-02-03T10:26:18;11.80;99.90
1568;DHT22;777;47.156;8.326;2023-02-03T10:28:53;12.80;99.90
1568;DHT22;777;47.156;8.326;2023-02-03T10:31:22;13.30;99.90
1568;DHT22;777;47.156;8.326;2023-02-03T10:33:54;12.90;99.90
1568;DHT22;777;47.156;8.326;2023-02-03T10:36:22;12.30;99.90
1568;DHT22;777;47.156;8.326;2023-02-03T10:39:00;12.00;99.90
1568;DHT22;777;47.156;8.326;2023-02-03T10:41:30;12.70;99.90
1568;DHT22;777;47.156;8.326;2023-02-03T10:44:01;13.10;99.90
1568;DHT22;777;47.156;8.326;2023-02-03T10:46:34;13.10;99.90
1568;DHT22;777;47.156;8.326;2023-02-03T10:49:01;13.30;99.90
1568;DHT22;777;47.156;8.326;2023-02-03T10:51:33;13.40;99.90
1568;DHT22;777;47.156;8.326;2023-02-03T10:54:02;13.50;99.90
1568;DHT22;777;47.156;8.326;2023-02-03T10:56:30;13.90;99.90
1568;DHT22;777;47.156;8.326;2023-02-03T10:59:00;14.00;99.90
1568;DHT22;777;47.156;8.326;2023-02-03T11:01:37;13.90;99.90
1568;DHT22;777;47.156;8.326;2023-02-03T11:04:08;13.40;99.90
1568;DHT22;777;47.156;8.326;2023-02-03T11:06:54;13.90;99.90
1568;DHT22;777;47.156;8.326;2023-02-03T11:09:29;13.30;99.90
1568;DHT22;777;47.156;8.326;2023-02-03T11:12:09;12.90;99.90
1568;DHT22;777;47.156;8.326;2023-02-03T11:14:40;13.50;99.90
1568;DHT22;777;47.156;8.326;2023-02-03T11:17:14;13.80;99.90
1568;DHT22;777;47.156;8.326;2023-02-03T11:19:43;13.90;99.90
1568;DHT22;777;47.156;8.326;2023-02-03T11:22:12;14.60;99.90
1568;DHT22;777;47.156;8.326;2023-02-03T11:24:40;15.10;99.90
1568;DHT22;777;47.156;8.326;2023-02-03T11:27:12;15.90;99.90
1568;DHT22;777;47.156;8.326;2023-02-03T11:29:44;16.30;99.50
1568;DHT22;777;47.156;8.326;2023-02-03T11:32:18;15.40;99.20
1568;DHT22;777;47.156;8.326;2023-02-03T11:34:55;15.50;99.90
1568;DHT22;777;47.156;8.326;2023-02-03T11:37:27;15.80;99.10
1568;DHT22;777;47.156;8.326;2023-02-03T11:39:55;14.50;97.70
1568;DHT22;777;47.156;8.326;2023-02-03T11:42:23;13.90;99.90
1568;DHT22;777;47.156;8.326;2023-02-03T11:44:55;13.30;99.90
1568;DHT22;777;47.156;8.326;2023-02-03T11:47:43;12.70;99.90
1568;DHT22;777;47.156;8.326;2023-02-03T11:50:20;12.30;99.90
1568;DHT22;777;47.156;8.326;2023-02-03T11:53:19;11.90;99.90
1568;DHT22;777;47.156;8.326;2023-02-03T11:56:12;11.80;99.90
1568;DHT22;777;47.156;8.326;2023-02-03T11:58:55;11.80;99.90
1568;DHT22;777;47.156;8.326;2023-02-03T12:01:52;12.10;99.90
1568;DHT22;777;47.156;8.326;2023-02-03T12:07:30;14.60;99.90
1568;DHT22;777;47.156;8.326;2023-02-03T12:10:10;15.40;99.90
1568;DHT22;777;47.156;8.326;2023-02-03T12:12:50;16.00;99.90
1568;DHT22;777;47.156;8.326;2023-02-03T12:15:28;16.50;99.90
1568;DHT22;777;47.156;8.326;2023-02-03T12:18:20;17.10;98.10
1568;DHT22;777;47.156;8.326;2023-02-03T12:20:59;16.80;96.00
1568;DHT22;777;47.156;8.326;2023-02-03T12:23:37;16.10;96.00
1568;DHT22;777;47.156;8.326;2023-02-03T12:26:16;14.90;96.30
1568;DHT22;777;47.156;8.326;2023-02-03T12:28:49;14.30;99.10
1568;DHT22;777;47.156;8.326;2023-02-03T12:31:24;13.60;99.90
1568;DHT22;777;47.156;8.326;2023-02-03T12:34:02;12.90;99.90
1568;DHT22;777;47.156;8.326;2023-02-03T12:36:35;13.10;99.90
1568;DHT22;777;47.156;8.326;2023-02-03T12:39:11;14.50;99.90
1568;DHT22;777;47.156;8.326;2023-02-03T12:41:43;15.70;97.90
1568;DHT22;777;47.156;8.326;2023-02-03T12:44:17;15.60;96.50
1568;DHT22;777;47.156;8.326;2023-02-03T12:46:46;15.80;96.50
1568;DHT22;777;47.156;8.326;2023-02-03T12:49:26;16.30;96.10
1568;DHT22;777;47.156;8.326;2023-02-03T12:51:58;15.70;95.30
1568;DHT22;777;47.156;8.326;2023-02-03T12:54:35;15.00;97.00
1568;DHT22;777;47.156;8.326;2023-02-03T12:57:13;14.00;97.50
1568;DHT22;777;47.156;8.326;2023-02-03T12:59:45;13.40;99.40
1568;DHT22;777;47.156;8.326;2023-02-03T13:02:21;13.10;99.90
1568;DHT22;777;47.156;8.326;2023-02-03T13:04:53;12.70;99.90
1568;DHT22;777;47.156;8.326;2023-02-03T13:07:26;12.40;99.90
1568;DHT22;777;47.156;8.326;2023-02-03T13:09:59;12.10;99.90
1568;DHT22;777;47.156;8.326;2023-02-03T13:12:32;11.80;99.90
1568;DHT22;777;47.156;8.326;2023-02-03T13:15:10;11.40;99.90
1568;DHT22;777;47.156;8.326;2023-02-03T13:17:44;11.10;99.90
1568;DHT22;777;47.156;8.326;2023-02-03T13:20:17;10.90;99.90
1568;DHT22;777;47.156;8.326;2023-02-03T13:22:45;10.80;99.90
1568;DHT22;777;47.156;8.326;2023-02-03T13:25:17;10.70;99.90
1568;DHT22;777;47.156;8.326;2023-02-03T13:27:49;10.40;99.90
1568;DHT22;777;47.156;8.326;2023-02-03T13:30:45;10.20;99.90
1568;DHT22;777;47.156;8.326;2023-02-03T13:33:43;10.00;99.90
1568;DHT22;777;47.156;8.326;2023-02-03T13:39:32;9.70;99.90
1568;DHT22;777;47.156;8.326;2023-02-03T13:42:17;9.60;99.90
1568;DHT22;777;47.156;8.326;2023-02-03T13:44:48;9.50;99.90
1568;DHT22;777;47.156;8.326;2023-02-03T13:47:19;9.30;99.90
1568;DHT22;777;47.156;8.326;2023-02-03T13:49:52;9.10;99.90
1568;DHT22;777;47.156;8.326;2023-02-03T13:52:27;9.00;99.90
1568;DHT22;777;47.156;8.326;2023-02-03T13:54:55;9.00;99.90
1568;DHT22;777;47.156;8.326;2023-02-03T13:57:30;8.90;99.90
1568;DHT22;777;47.156;8.326;2023-02-03T13:59:59;8.90;99.90
1568;DHT22;777;47.156;8.326;2023-02-03T14:02:42;8.90;99.90
1568;DHT22;777;47.156;8.326;2023-02-03T14:05:40;8.80;99.90
1568;DHT22;777;47.156;8.326;2023-02-03T14:11:45;8.80;99.90
1568;DHT22;777;47.156;8.326;2023-02-03T14:14:44;8.80;99.90
1568;DHT22;777;47.156;8.326;2023-02-03T14:23:37;8.70;99.90
1568;DHT22;777;47.156;8.326;2023-02-03T14:26:05;8.70;99.90
1568;DHT22;777;47.156;8.326;2023-02-03T14:28:42;8.70;99.90
1568;DHT22;777;47.156;8.326;2023-02-03T14:31:17;8.70;99.90
1568;DHT22;777;47.156;8.326;2023-02-03T14:34:00;8.70;99.90
1568;DHT22;777;47.156;8.326;2023-02-03T14:36:43;8.60;99.90
1568;DHT22;777;47.156;8.326;2023-02-03T14:39:49;8.50;99.90
1568;DHT22;777;47.156;8.326;2023-02-03T14:43:06;8.50;99.90
1568;DHT22;777;47.156;8.326;2023-02-03T14:46:10;8.40;99.90
1568;DHT22;777;47.156;8.326;2023-02-03T14:48:53;8.30;99.90
1568;DHT22;777;47.156;8.326;2023-02-03T14:51:39;8.20;99.90
1568;DHT22;777;47.156;8.326;2023-02-03T14:54:11;8.20;99.90
1568;DHT22;777;47.156;8.326;2023-02-03T14:56:46;8.10;99.90
1568;DHT22;777;47.156;8.326;2023-02-03T14:59:38;8.00;99.90
1568;DHT22;777;47.156;8.326;2023-02-03T15:02:13;8.00;99.90
1568;DHT22;777;47.156;8.326;2023-02-03T15:04:41;7.90;99.90
1568;DHT22;777;47.156;8.326;2023-02-03T15:07:35;7.80;99.90
1568;DHT22;777;47.156;8.326;2023-02-03T15:10:08;7.70;99.90
1568;DHT22;777;47.156;8.326;2023-02-03T15:12:37;7.60;99.90
1568;DHT22;777;47.156;8.326;2023-02-03T15:15:23;7.60;99.90
1568;DHT22;777;47.156;8.326;2023-02-03T15:17:53;7.60;99.90
1568;DHT22;777;47.156;8.326;2023-02-03T15:20:26;7.60;99.90
1568;DHT22;777;47.156;8.326;2023-02-03T15:22:55;7.50;99.90
1568;DHT22;777;47.156;8.326;2023-02-03T15:25:23;7.50;99.90
1568;DHT22;777;47.156;8.326;2023-02-03T15:27:51;7.50;99.90
1568;DHT22;777;47.156;8.326;2023-02-03T15:30:23;7.50;99.90
1568;DHT22;777;47.156;8.326;2023-02-03T15:32:58;7.40;99.90
1568;DHT22;777;47.156;8.326;2023-02-03T15:35:30;7.30;99.90
1568;DHT22;777;47.156;8.326;2023-02-03T15:37:59;7.20;99.90
1568;DHT22;777;47.156;8.326;2023-02-03T15:40:34;7.20;99.90
1568;DHT22;777;47.156;8.326;2023-02-03T15:43:03;7.10;99.90
1568;DHT22;777;47.156;8.326;2023-02-03T15:45:36;7.10;99.90
1568;DHT22;777;47.156;8.326;2023-02-03T15:48:13;7.00;99.90
1568;DHT22;777;47.156;8.326;2023-02-03T15:50:46;7.00;99.90
1568;DHT22;777;47.156;8.326;2023-02-03T15:53:18;6.90;99.90
1568;DHT22;777;47.156;8.326;2023-02-03T15:55:47;6.80;99.90
1568;DHT22;777;47.156;8.326;2023-02-03T15:58:18;6.80;99.90
1568;DHT22;777;47.156;8.326;2023-02-03T16:00:48;6.70;99.90
1568;DHT22;777;47.156;8.326;2023-02-03T16:03:19;6.60;99.90
1568;DHT22;777;47.156;8.326;2023-02-03T16:05:48;6.50;99.90
1568;DHT22;777;47.156;8.326;2023-02-03T16:08:35;6.50;99.90
1568;DHT22;777;47.156;8.326;2023-02-03T16:11:20;6.40;99.90
1568;DHT22;777;47.156;8.326;2023-02-03T16:13:47;6.30;99.90
1568;DHT22;777;47.156;8.326;2023-02-03T16:16:19;6.20;99.90
1568;DHT22;777;47.156;8.326;2023-02-03T16:18:52;6.20;99.90
1568;DHT22;777;47.156;8.326;2023-02-03T16:21:31;6.20;99.90
1568;DHT22;777;47.156;8.326;2023-02-03T16:23:59;6.00;99.90
1568;DHT22;777;47.156;8.326;2023-02-03T16:26:27;5.90;99.90
1568;DHT22;777;47.156;8.326;2023-02-03T16:29:10;5.90;99.90
1568;DHT22;777;47.156;8.326;2023-02-03T16:31:56;5.80;99.90
1568;DHT22;777;47.156;8.326;2023-02-03T16:34:42;5.70;99.90
1568;DHT22;777;47.156;8.326;2023-02-03T16:37:28;5.60;99.90
1568;DHT22;777;47.156;8.326;2023-02-03T16:40:17;5.60;99.90
1568;DHT22;777;47.156;8.326;2023-02-03T16:43:04;5.50;99.90
1568;DHT22;777;47.156;8.326;2023-02-03T16:45:54;5.50;99.90
1568;DHT22;777;47.156;8.326;2023-02-03T16:48:39;5.50;99.90
1568;DHT22;777;47.156;8.326;2023-02-03T16:51:26;5.50;99.90
1568;DHT22;777;47.156;8.326;2023-02-03T16:53:55;5.50;99.90
1568;DHT22;777;47.156;8.326;2023-02-03T16:56:22;5.40;99.90
1568;DHT22;777;47.156;8.326;2023-02-03T16:58:49;5.40;99.90
1568;DHT22;777;47.156;8.326;2023-02-03T17:01:16;5.40;99.90
1568;DHT22;777;47.156;8.326;2023-02-03T17:03:44;5.30;99.90
1568;DHT22;777;47.156;8.326;2023-02-03T17:06:12;5.30;99.90
1568;DHT22;777;47.156;8.326;2023-02-03T17:08:41;5.20;99.90
1568;DHT22;777;47.156;8.326;2023-02-03T17:11:13;5.00;99.90
1568;DHT22;777;47.156;8.326;2023-02-03T17:13:41;4.90;99.90
1568;DHT22;777;47.156;8.326;2023-02-03T17:16:10;4.90;99.90
1568;DHT22;777;47.156;8.326;2023-02-03T17:18:38;4.90;99.90
1568;DHT22;777;47.156;8.326;2023-02-03T17:21:06;4.90;99.90
1568;DHT22;777;47.156;8.326;2023-02-03T17:23:34;4.90;99.90